createdAt,value
2022-11-19T00:00:25.189Z,99903.80
2022-11-19T00:03:03.722Z,99901.02
2022-11-19T00:05:32.226Z,99901.30
2022-11-19T00:08:00.497Z,99905.40
2022-11-19T00:10:28.752Z,99906.59
2022-11-19T00:12:57.708Z,99906.63
2022-11-19T00:15:26.389Z,99908.12
2022-11-19T00:17:56.642Z,99912.79
2022-11-19T00:20:30.721Z,99910.11
2022-11-19T00:23:00.166Z,99914.46
2022-11-19T00:25:30.081Z,99913.66
2022-11-19T00:27:59.162Z,99917.01
2022-11-19T00:30:46.964Z,99920.30
2022-11-19T00:33:16.600Z,99923.98
2022-11-19T00:35:45.401Z,99928.91
2022-11-19T00:38:13.698Z,99930.48
2022-11-19T00:40:42.652Z,99926.20
2022-11-19T00:43:29.628Z,99929.59
2022-11-19T00:45:58.414Z,99929.10
2022-11-19T00:48:26.659Z,99930.20
2022-11-19T00:50:54.939Z,99926.78
2022-11-19T00:53:25.677Z,99922.81
2022-11-19T00:55:54.557Z,99924.11
2022-11-19T00:58:26.379Z,99928.95
2022-11-19T01:00:57.531Z,99935.23
2022-11-19T01:03:26.357Z,99935.14
2022-11-19T01:05:54.627Z,99935.94
2022-11-19T01:08:25.989Z,99938.84
2022-11-19T01:10:54.458Z,99942.48
2022-11-19T01:13:34.620Z,99944.52
2022-11-19T01:16:06.182Z,99949.43
2022-11-19T01:18:35.876Z,99950.33
2022-11-19T01:21:05.491Z,99951.40
2022-11-19T01:23:34.150Z,99954.58
2022-11-19T01:26:02.504Z,99955.14
2022-11-19T01:28:31.173Z,99954.30
2022-11-19T01:31:00.076Z,99956.25
2022-11-19T01:33:34.809Z,99954.71
2022-11-19T01:36:05.798Z,99958.05
2022-11-19T01:38:34.807Z,99959.02
2022-11-19T01:41:03.583Z,99959.58
2022-11-19T01:43:43.879Z,99957.63
2022-11-19T01:46:14.605Z,99957.67
2022-11-19T01:48:48.582Z,99957.71
2022-11-19T01:51:22.637Z,99955.98
2022-11-19T01:53:53.740Z,99952.14
2022-11-19T01:56:23.406Z,99953.11
2022-11-19T01:58:58.804Z,99948.71
2022-11-19T02:01:29.720Z,99952.36
2022-11-19T02:04:00.488Z,99953.55
2022-11-19T02:06:30.288Z,99955.30
2022-11-19T02:08:58.842Z,99961.11
2022-11-19T02:11:45.270Z,99957.06
2022-11-19T02:14:35.977Z,99962.07
2022-11-19T02:17:14.626Z,99963.55
2022-11-19T02:20:22.394Z,99958.05
2022-11-19T02:23:29.208Z,99955.66
2022-11-19T02:26:20.091Z,99947.77
2022-11-19T02:28:52.054Z,99945.23
2022-11-19T02:31:24.142Z,99946.19
2022-11-19T02:33:58.360Z,99946.70
2022-11-19T02:36:35.647Z,99949.52
2022-11-19T02:39:12.751Z,99954.16
2022-11-19T02:41:55.630Z,99952.63
2022-11-19T02:44:50.155Z,99950.38
2022-11-19T02:47:21.047Z,99949.84
2022-11-19T02:49:54.655Z,99949.68
2022-11-19T02:52:23.079Z,99946.23
2022-11-19T02:54:52.875Z,99947.44
2022-11-19T02:57:23.932Z,99950.41
2022-11-19T03:00:16.384Z,99952.58
2022-11-19T03:03:22.807Z,99961.61
2022-11-19T03:05:59.294Z,99963.25
2022-11-19T03:08:33.517Z,99968.23
2022-11-19T03:11:14.468Z,99972.41
2022-11-19T03:14:10.510Z,99980.04
2022-11-19T03:16:42.257Z,99982.81
2022-11-19T03:19:35.066Z,99989.21
2022-11-19T03:22:10.146Z,99989.89
2022-11-19T03:24:44.156Z,99990.79
2022-11-19T03:27:22.598Z,99993.10
2022-11-19T03:29:57.304Z,99989.98
2022-11-19T03:32:32.740Z,99994.77
2022-11-19T03:35:07.464Z,99997.89
2022-11-19T03:37:42.810Z,99997.89
2022-11-19T03:40:15.097Z,99997.81
2022-11-19T03:42:45.920Z,99997.55
2022-11-19T03:45:20.997Z,99999.13
2022-11-19T03:47:52.196Z,100001.98
2022-11-19T03:50:29.228Z,100003.08
2022-11-19T03:53:04.398Z,100006.39
2022-11-19T03:55:37.817Z,100014.60
2022-11-19T03:58:17.382Z,100017.85
2022-11-19T04:00:45.929Z,100023.71
2022-11-19T04:03:14.425Z,100026.30
2022-11-19T04:05:42.998Z,100023.67
2022-11-19T04:08:13.985Z,100025.95
2022-11-19T04:10:45.818Z,100028.50
2022-11-19T04:13:14.451Z,100030.61
2022-11-19T04:15:42.731Z,100031.16
2022-11-19T04:18:12.027Z,100029.75
2022-11-19T04:20:45.274Z,100033.23
2022-11-19T04:23:13.852Z,100030.52
2022-11-19T04:25:46.603Z,100028.20
2022-11-19T04:28:18.331Z,100031.45
2022-11-19T04:30:46.745Z,100032.72
2022-11-19T04:33:15.139Z,100035.14
2022-11-19T04:35:45.757Z,100037.50
2022-11-19T04:38:15.896Z,100037.18
2022-11-19T04:40:44.737Z,100042.23
2022-11-19T04:43:13.070Z,100040.39
2022-11-19T04:45:42.256Z,100042.37
2022-11-19T04:48:11.182Z,100043.67
2022-11-19T04:50:39.498Z,100046.63
2022-11-19T04:53:09.905Z,100047.98
2022-11-19T04:55:44.897Z,100046.17
2022-11-19T04:58:23.086Z,100051.33
2022-11-19T05:00:51.712Z,100051.49
2022-11-19T05:03:20.395Z,100053.83
2022-11-19T05:05:52.366Z,100055.06
2022-11-19T05:08:24.785Z,100052.90
2022-11-19T05:10:54.055Z,100048.86
2022-11-19T05:13:28.116Z,100043.21
2022-11-19T05:15:56.648Z,100041.41
2022-11-19T05:18:25.425Z,100040.86
2022-11-19T05:20:53.775Z,100040.69
2022-11-19T05:23:25.088Z,100041.90
2022-11-19T05:25:53.802Z,100046.89
2022-11-19T05:28:38.087Z,100050.30
2022-11-19T05:31:09.606Z,100050.71
2022-11-19T05:33:38.294Z,100054.30
2022-11-19T05:36:10.605Z,100056.71
2022-11-19T05:38:40.694Z,100058.59
2022-11-19T05:41:09.053Z,100059.63
2022-11-19T05:43:40.023Z,100060.93
2022-11-19T05:46:08.400Z,100064.05
2022-11-19T05:48:36.970Z,100065.84
2022-11-19T05:51:05.974Z,100067.12
2022-11-19T05:53:34.370Z,100068.52
2022-11-19T05:56:02.758Z,100077.25
2022-11-19T05:58:31.213Z,100083.58
2022-11-19T06:01:02.965Z,100088.81
2022-11-19T06:03:32.231Z,100094.38
2022-11-19T06:06:07.642Z,100096.25
2022-11-19T06:08:37.566Z,100095.16
2022-11-19T06:11:06.114Z,100093.56
2022-11-19T06:13:34.518Z,100098.27
2022-11-19T06:16:10.770Z,100099.73
2022-11-19T06:18:40.848Z,100106.05
2022-11-19T06:21:12.319Z,100108.05
2022-11-19T06:23:41.093Z,100109.07
2022-11-19T06:26:10.266Z,100115.71
2022-11-19T06:28:40.423Z,100121.64
2022-11-19T06:31:12.870Z,100133.99
2022-11-19T06:33:41.483Z,100138.58
2022-11-19T06:36:10.516Z,100141.67
2022-11-19T06:38:39.346Z,100146.02
2022-11-19T06:41:07.892Z,100151.81
2022-11-19T06:43:36.214Z,100151.87
2022-11-19T06:46:05.978Z,100158.08
2022-11-19T06:48:35.750Z,100163.02
2022-11-19T06:51:05.154Z,100162.92
2022-11-19T06:53:34.667Z,100163.69
2022-11-19T06:56:05.515Z,100167.14
2022-11-19T06:58:34.303Z,100171.23
2022-11-19T07:01:02.996Z,100173.96
2022-11-19T07:03:35.648Z,100176.20
2022-11-19T07:06:07.151Z,100174.52
2022-11-19T07:08:44.726Z,100174.27
2022-11-19T07:14:15.777Z,100178.63
2022-11-19T07:16:44.557Z,100176.67
2022-11-19T07:19:19.193Z,100174.80
2022-11-19T07:21:47.967Z,100176.38
2022-11-19T07:24:20.650Z,100179.50
2022-11-19T07:26:48.986Z,100182.10
2022-11-19T07:29:18.352Z,100180.52
2022-11-19T07:31:50.044Z,100186.67
2022-11-19T07:34:23.851Z,100190.48
2022-11-19T07:36:53.694Z,100188.60
2022-11-19T07:39:23.598Z,100189.14
2022-11-19T07:42:10.799Z,100193.54
2022-11-19T07:44:45.000Z,100197.00
2022-11-19T07:47:18.410Z,100200.97
2022-11-19T07:49:47.709Z,100198.75
2022-11-19T07:52:17.492Z,100203.09
2022-11-19T07:54:51.612Z,100200.54
2022-11-19T07:57:19.885Z,100201.38
2022-11-19T07:59:48.318Z,100198.90
2022-11-19T08:02:24.895Z,100198.77
2022-11-19T08:04:53.699Z,100197.02
2022-11-19T08:07:22.180Z,100191.23
2022-11-19T08:09:52.974Z,100189.69
2022-11-19T08:12:21.365Z,100190.54
2022-11-19T08:14:49.986Z,100189.74
2022-11-19T08:17:40.808Z,100190.12
2022-11-19T08:20:20.344Z,100194.73
2022-11-19T08:22:49.039Z,100197.57
2022-11-19T08:25:20.120Z,100203.89
2022-11-19T08:27:50.011Z,100201.23
2022-11-19T08:30:20.714Z,100203.66
2022-11-19T08:32:50.176Z,100200.22
2022-11-19T08:35:22.382Z,100205.50
2022-11-19T08:37:53.263Z,100203.36
2022-11-19T08:40:21.600Z,100201.66
2022-11-19T08:43:02.848Z,100205.80
2022-11-19T08:45:33.552Z,100206.46
2022-11-19T08:48:10.151Z,100212.01
2022-11-19T08:50:41.586Z,100216.61
2022-11-19T08:53:11.710Z,100215.36
2022-11-19T08:55:43.829Z,100215.83
2022-11-19T08:58:12.425Z,100221.73
2022-11-19T09:00:40.774Z,100225.24
2022-11-19T09:03:09.281Z,100224.04
2022-11-19T09:05:38.671Z,100221.08
2022-11-19T09:08:12.279Z,100222.65
2022-11-19T09:10:42.749Z,100226.00
2022-11-19T09:13:12.235Z,100224.67
2022-11-19T09:15:47.460Z,100225.39
2022-11-19T09:18:18.544Z,100229.71
2022-11-19T09:20:52.496Z,100229.10
2022-11-19T09:23:21.070Z,100229.77
2022-11-19T09:25:56.946Z,100232.37
2022-11-19T09:28:27.165Z,100232.97
2022-11-19T09:30:57.279Z,100235.44
2022-11-19T09:33:29.073Z,100227.15
2022-11-19T09:35:57.353Z,100226.58
2022-11-19T09:38:31.141Z,100226.11
2022-11-19T09:41:20.911Z,100224.64
2022-11-19T09:43:59.219Z,100224.98
2022-11-19T09:46:50.429Z,100222.48
2022-11-19T09:49:25.372Z,100220.78
2022-11-19T09:51:59.342Z,100225.19
2022-11-19T09:54:28.375Z,100227.58
2022-11-19T09:57:04.373Z,100228.26
2022-11-19T09:59:50.254Z,100229.26
2022-11-19T10:02:21.853Z,100229.35
2022-11-19T10:04:51.789Z,100228.19
2022-11-19T10:07:31.098Z,100224.39
2022-11-19T10:10:20.861Z,100227.54
2022-11-19T10:13:12.369Z,100226.41
2022-11-19T10:15:56.684Z,100220.10
2022-11-19T10:18:43.827Z,100224.13
2022-11-19T10:21:22.123Z,100218.23
2022-11-19T10:23:55.510Z,100218.80
2022-11-19T10:26:39.059Z,100216.92
2022-11-19T10:29:16.727Z,100216.95
2022-11-19T10:31:50.504Z,100223.15
2022-11-19T10:34:23.245Z,100221.27
2022-11-19T10:36:57.341Z,100220.73
2022-11-19T10:39:36.986Z,100230.04
2022-11-19T10:42:18.372Z,100234.66
2022-11-19T10:44:54.654Z,100235.19
2022-11-19T10:47:34.518Z,100231.85
2022-11-19T10:50:08.271Z,100234.00
2022-11-19T10:52:42.443Z,100234.66
2022-11-19T10:55:21.935Z,100233.84
2022-11-19T10:57:52.473Z,100237.24
2022-11-19T11:00:21.473Z,100237.48
2022-11-19T11:02:57.944Z,100244.63
2022-11-19T11:05:27.135Z,100243.98
2022-11-19T11:07:57.979Z,100245.71
2022-11-19T11:10:42.152Z,100248.31
2022-11-19T11:13:42.361Z,100246.83
2022-11-19T11:16:15.444Z,100250.80
2022-11-19T11:18:45.180Z,100250.83
2022-11-19T11:21:28.012Z,100249.77
2022-11-19T11:23:59.316Z,100250.86
2022-11-19T11:26:34.712Z,100248.58
2022-11-19T11:29:10.577Z,100245.39
2022-11-19T11:32:23.513Z,100245.76
2022-11-19T11:34:52.689Z,100252.57
2022-11-19T11:37:25.824Z,100254.42
2022-11-19T11:39:56.162Z,100249.19
2022-11-19T11:42:28.126Z,100249.82
2022-11-19T11:45:00.500Z,100246.90
2022-11-19T11:47:34.817Z,100244.69
2022-11-19T11:50:12.013Z,100248.36
2022-11-19T11:52:43.868Z,100247.07
2022-11-19T11:55:34.490Z,100250.11
2022-11-19T11:58:06.728Z,100247.73
2022-11-19T12:00:38.065Z,100248.02
2022-11-19T12:03:08.985Z,100247.54
2022-11-19T12:05:56.749Z,100245.52
2022-11-19T12:08:50.636Z,100246.09
2022-11-19T12:11:53.728Z,100248.86
2022-11-19T12:14:26.127Z,100248.96
2022-11-19T12:17:28.201Z,100248.70
2022-11-19T12:20:20.872Z,100255.98
2022-11-19T12:23:12.093Z,100258.10
2022-11-19T12:25:46.340Z,100258.22
2022-11-19T12:28:40.166Z,100260.77
2022-11-19T12:31:27.310Z,100261.45
2022-11-19T12:34:40.162Z,100261.73
2022-11-19T12:37:33.765Z,100261.86
2022-11-19T12:40:13.976Z,100264.08
2022-11-19T12:42:53.221Z,100264.12
2022-11-19T12:45:35.844Z,100271.02
2022-11-19T12:48:23.533Z,100277.08
2022-11-19T12:51:04.144Z,100282.95
2022-11-19T12:53:44.728Z,100282.66
2022-11-19T12:56:31.607Z,100281.85
2022-11-19T12:59:12.788Z,100285.86
2022-11-19T13:01:49.843Z,100282.55
2022-11-19T13:04:28.142Z,100281.38
2022-11-19T13:07:01.058Z,100279.52
2022-11-19T13:09:35.519Z,100277.80
2022-11-19T13:12:08.092Z,100279.79
2022-11-19T13:14:43.204Z,100275.48
2022-11-19T13:17:18.239Z,100276.24
2022-11-19T13:19:52.368Z,100272.25
2022-11-19T13:22:30.700Z,100276.66
2022-11-19T13:25:00.576Z,100276.73
2022-11-19T13:27:34.688Z,100279.73
2022-11-19T13:30:06.786Z,100283.31
2022-11-19T13:32:45.592Z,100288.41
2022-11-19T13:35:20.656Z,100295.84
2022-11-19T13:38:00.533Z,100299.00
2022-11-19T13:40:36.563Z,100307.23
2022-11-19T13:43:32.066Z,100307.38
2022-11-19T13:46:13.661Z,100310.36
2022-11-19T13:48:46.062Z,100315.47
2022-11-19T13:51:28.645Z,100316.30
2022-11-19T13:54:03.030Z,100315.90
2022-11-19T13:56:43.628Z,100319.32
2022-11-19T13:59:37.626Z,100315.85
2022-11-19T14:02:33.715Z,100326.48
2022-11-19T14:05:48.665Z,100325.57
2022-11-19T14:08:42.233Z,100329.71
2022-11-19T14:11:30.014Z,100334.96
2022-11-19T14:14:37.286Z,100340.24
2022-11-19T14:17:33.338Z,100338.85
2022-11-19T14:20:20.292Z,100336.00
2022-11-19T14:23:17.028Z,100339.48
2022-11-19T14:26:05.808Z,100340.50
2022-11-19T14:28:50.652Z,100339.69
2022-11-19T14:31:23.019Z,100338.38
2022-11-19T14:34:00.969Z,100334.09
2022-11-19T14:36:48.897Z,100334.48
2022-11-19T14:39:25.895Z,100330.02
2022-11-19T14:42:15.400Z,100329.13
2022-11-19T14:44:46.430Z,100326.52
2022-11-19T14:47:33.832Z,100335.48
2022-11-19T14:50:06.816Z,100336.89
2022-11-19T14:52:39.860Z,100333.83
2022-11-19T14:55:21.238Z,100331.82
2022-11-19T14:57:59.285Z,100330.08
2022-11-19T15:00:31.804Z,100332.39
2022-11-19T15:03:02.479Z,100330.30
2022-11-19T15:05:34.664Z,100328.53
2022-11-19T15:08:30.298Z,100326.25
2022-11-19T15:11:07.680Z,100328.17
2022-11-19T15:13:38.578Z,100323.79
2022-11-19T15:16:13.255Z,100324.07
2022-11-19T15:19:06.810Z,100321.19
2022-11-19T15:22:22.207Z,100317.58
2022-11-19T15:25:03.714Z,100322.83
2022-11-19T15:27:48.762Z,100324.98
2022-11-19T15:30:20.279Z,100325.17
2022-11-19T15:33:24.522Z,100329.73
2022-11-19T15:36:10.825Z,100333.73
2022-11-19T15:38:47.407Z,100340.37
2022-11-19T15:41:20.737Z,100341.54
2022-11-19T15:43:53.485Z,100340.84
2022-11-19T15:46:44.023Z,100340.15
2022-11-19T15:49:19.230Z,100340.48
2022-11-19T15:51:59.535Z,100337.55
2022-11-19T15:54:31.039Z,100340.34
2022-11-19T15:57:03.608Z,100347.30
2022-11-19T15:59:38.480Z,100348.15
2022-11-19T16:02:21.169Z,100349.73
2022-11-19T16:04:50.346Z,100352.14
2022-11-19T16:07:25.019Z,100359.95
2022-11-19T16:09:57.422Z,100361.23
2022-11-19T16:12:48.042Z,100362.09
2022-11-19T16:15:39.684Z,100364.98
2022-11-19T16:18:14.605Z,100364.83
2022-11-19T16:20:52.179Z,100361.69
2022-11-19T16:23:25.499Z,100362.63
2022-11-19T16:25:55.160Z,100366.00
2022-11-19T16:28:30.138Z,100368.77
2022-11-19T16:31:04.866Z,100370.80
2022-11-19T16:33:34.383Z,100379.19
2022-11-19T16:36:16.431Z,100378.16
2022-11-19T16:38:49.821Z,100380.59
2022-11-19T16:41:40.985Z,100374.70
2022-11-19T16:44:12.133Z,100375.02
2022-11-19T16:46:48.431Z,100378.14
2022-11-19T16:49:40.120Z,100378.84
2022-11-19T16:52:08.913Z,100382.13
2022-11-19T16:54:51.734Z,100384.35
2022-11-19T16:57:22.751Z,100386.07
2022-11-19T16:59:53.671Z,100384.27
2022-11-19T17:02:31.797Z,100382.64
2022-11-19T17:05:08.607Z,100377.71
2022-11-19T17:07:37.408Z,100378.09
2022-11-19T17:10:30.716Z,100369.31
2022-11-19T17:13:02.944Z,100362.85
2022-11-19T17:15:38.571Z,100363.44
2022-11-19T17:18:19.245Z,100363.59
2022-11-19T17:20:55.056Z,100357.94
2022-11-19T17:23:25.432Z,100360.42
2022-11-19T17:25:58.029Z,100369.91
2022-11-19T17:28:37.678Z,100377.28
2022-11-19T17:31:17.294Z,100383.95
2022-11-19T17:34:02.993Z,100389.98
2022-11-19T17:36:32.092Z,100391.71
2022-11-19T17:39:04.433Z,100394.80
2022-11-19T17:42:01.958Z,100398.95
2022-11-19T17:44:38.820Z,100396.77
2022-11-19T17:47:24.197Z,100389.72
2022-11-19T17:49:56.445Z,100381.99
2022-11-19T17:52:28.248Z,100375.88
2022-11-19T17:55:01.880Z,100366.46
2022-11-19T17:57:31.726Z,100362.38
2022-11-19T18:00:00.637Z,100365.05
2022-11-19T18:02:32.849Z,100375.67
2022-11-19T18:05:02.769Z,100382.48
2022-11-19T18:07:34.264Z,100387.71
2022-11-19T18:10:05.180Z,100390.84
2022-11-19T18:12:36.956Z,100397.06
2022-11-19T18:15:12.525Z,100405.60
2022-11-19T18:17:43.501Z,100408.02
2022-11-19T18:20:13.626Z,100413.30
2022-11-19T18:22:42.706Z,100418.38
2022-11-19T18:25:21.777Z,100416.61
2022-11-19T18:27:50.933Z,100417.66
2022-11-19T18:30:20.082Z,100419.31
2022-11-19T18:32:49.535Z,100423.59
2022-11-19T18:35:28.126Z,100424.84
2022-11-19T18:37:56.715Z,100422.99
2022-11-19T18:40:26.295Z,100420.13
2022-11-19T18:43:17.320Z,100412.86
2022-11-19T18:45:47.355Z,100411.41
2022-11-19T18:48:25.249Z,100414.75
2022-11-19T18:50:54.188Z,100420.66
2022-11-19T18:53:22.569Z,100420.52
2022-11-19T18:55:55.693Z,100427.95
2022-11-19T18:58:30.027Z,100430.16
2022-11-19T19:01:07.444Z,100430.30
2022-11-19T19:03:36.357Z,100428.88
2022-11-19T19:06:13.645Z,100423.52
2022-11-19T19:08:45.103Z,100417.22
2022-11-19T19:11:34.431Z,100412.80
2022-11-19T19:14:06.776Z,100411.19
2022-11-19T19:17:03.748Z,100411.94
2022-11-19T19:19:36.485Z,100411.63
2022-11-19T19:22:17.073Z,100413.13
2022-11-19T19:24:47.841Z,100413.19
2022-11-19T19:27:17.623Z,100421.42
2022-11-19T19:29:49.143Z,100430.52
2022-11-19T19:32:22.412Z,100430.83
2022-11-19T19:34:51.223Z,100434.70
2022-11-19T19:37:21.181Z,100432.23
2022-11-19T19:39:53.877Z,100435.60
2022-11-19T19:42:23.048Z,100436.08
2022-11-19T19:44:58.580Z,100438.63
2022-11-19T19:47:31.149Z,100437.23
2022-11-19T19:49:59.678Z,100437.05
2022-11-19T19:52:34.866Z,100435.24
2022-11-19T19:55:04.415Z,100433.81
2022-11-19T19:57:33.215Z,100438.64
2022-11-19T20:00:02.058Z,100436.83
2022-11-19T20:02:40.807Z,100436.61
2022-11-19T20:05:09.983Z,100437.84
2022-11-19T20:07:38.400Z,100441.83
2022-11-19T20:10:08.883Z,100446.20
2022-11-19T20:12:55.691Z,100446.88
2022-11-19T20:15:24.690Z,100443.91
2022-11-19T20:17:53.478Z,100446.04
2022-11-19T20:20:28.106Z,100441.14
2022-11-19T20:22:57.300Z,100436.33
2022-11-19T20:25:29.672Z,100435.84
2022-11-19T20:27:58.621Z,100434.48
2022-11-19T20:30:28.073Z,100432.77
2022-11-19T20:32:56.754Z,100430.10
2022-11-19T20:35:25.413Z,100429.77
2022-11-19T20:38:00.812Z,100431.19
2022-11-19T20:40:32.652Z,100437.80
2022-11-19T20:43:22.343Z,100443.42
2022-11-19T20:45:53.982Z,100443.59
2022-11-19T20:48:26.360Z,100446.37
2022-11-19T20:51:02.123Z,100442.95
2022-11-19T20:53:31.103Z,100444.92
2022-11-19T20:56:05.880Z,100441.86
2022-11-19T20:58:34.933Z,100442.55
2022-11-19T21:01:06.429Z,100433.75
2022-11-19T21:03:35.187Z,100428.71
2022-11-19T21:06:06.111Z,100429.55
2022-11-19T21:08:35.866Z,100423.67
2022-11-19T21:11:08.556Z,100423.14
2022-11-19T21:13:37.569Z,100426.05
2022-11-19T21:16:08.648Z,100434.00
2022-11-19T21:18:38.095Z,100433.66
2022-11-19T21:21:07.252Z,100432.06
2022-11-19T21:23:36.878Z,100426.68
2022-11-19T21:26:07.656Z,100424.65
2022-11-19T21:28:36.573Z,100421.17
2022-11-19T21:31:06.314Z,100426.70
2022-11-19T21:33:35.182Z,100427.60
2022-11-19T21:36:06.125Z,100431.67
2022-11-19T21:38:35.131Z,100434.42
2022-11-19T21:41:04.811Z,100437.05
2022-11-19T21:43:34.734Z,100436.45
2022-11-19T21:46:10.391Z,100439.98
2022-11-19T21:48:40.630Z,100439.02
2022-11-19T21:51:21.458Z,100440.11
2022-11-19T21:53:54.955Z,100439.56
2022-11-19T21:56:23.733Z,100440.23
2022-11-19T21:58:52.785Z,100442.82
2022-11-19T22:01:22.080Z,100437.25
2022-11-19T22:03:52.909Z,100437.02
2022-11-19T22:06:21.424Z,100436.91
2022-11-19T22:08:50.081Z,100436.48
2022-11-19T22:11:31.572Z,100436.10
2022-11-19T22:14:06.584Z,100432.31
2022-11-19T22:16:45.355Z,100431.96
2022-11-19T22:19:15.425Z,100431.47
2022-11-19T22:21:48.427Z,100434.77
2022-11-19T22:24:18.123Z,100432.14
2022-11-19T22:26:48.081Z,100429.23
2022-11-19T22:29:16.741Z,100428.48
2022-11-19T22:31:47.986Z,100426.33
2022-11-19T22:34:21.195Z,100427.58
2022-11-19T22:36:50.184Z,100427.35
2022-11-19T22:39:18.943Z,100425.55
2022-11-19T22:41:48.479Z,100424.75
2022-11-19T22:44:20.467Z,100423.27
2022-11-19T22:46:49.416Z,100426.52
2022-11-19T22:49:19.293Z,100429.16
2022-11-19T22:51:50.931Z,100430.05
2022-11-19T22:54:19.900Z,100429.77
2022-11-19T22:56:48.445Z,100434.00
2022-11-19T22:59:19.782Z,100432.31
2022-11-19T23:01:48.719Z,100426.10
2022-11-19T23:04:19.764Z,100427.11
2022-11-19T23:07:02.414Z,100426.19
2022-11-19T23:09:30.929Z,100420.11
2022-11-19T23:12:17.558Z,100417.48
2022-11-19T23:14:48.786Z,100415.23
2022-11-19T23:17:19.839Z,100410.38
2022-11-19T23:19:48.813Z,100410.79
2022-11-19T23:22:20.749Z,100412.65
2022-11-19T23:24:49.259Z,100417.30
2022-11-19T23:27:22.228Z,100412.95
2022-11-19T23:29:51.264Z,100405.94
2022-11-19T23:32:19.912Z,100399.61
2022-11-19T23:34:49.721Z,100393.65
2022-11-19T23:37:18.588Z,100396.70
2022-11-19T23:39:49.519Z,100395.12
2022-11-19T23:42:18.878Z,100402.23
2022-11-19T23:44:48.832Z,100400.66
2022-11-19T23:47:17.701Z,100395.98
2022-11-19T23:49:47.696Z,100395.27
2022-11-19T23:52:19.863Z,100395.73
2022-11-19T23:54:49.588Z,100397.82
2022-11-19T23:57:18.909Z,100399.19
2022-11-19T23:59:47.833Z,100401.25
